sensor_id;sensor_type;location;lat;lon;timestamp;temperature;humidity
2042;DHT22;1026;51.460;7.252;2022-07-22T00:00:31;21.20;75.00
2042;DHT22;1026;51.460;7.252;2022-07-22T00:02:57;21.20;75.00
2042;DHT22;1026;51.460;7.252;2022-07-22T00:05:23;21.20;75.00
2042;DHT22;1026;51.460;7.252;2022-07-22T00:07:48;21.20;75.10
2042;DHT22;1026;51.460;7.252;2022-07-22T00:10:14;21.20;75.20
2042;DHT22;1026;51.460;7.252;2022-07-22T00:12:40;21.10;75.40
2042;DHT22;1026;51.460;7.252;2022-07-22T00:15:07;21.10;75.20
2042;DHT22;1026;51.460;7.252;2022-07-22T00:17:33;21.10;75.20
2042;DHT22;1026;51.460;7.252;2022-07-22T00:19:59;21.10;75.10
2042;DHT22;1026;51.460;7.252;2022-07-22T00:22:25;21.10;75.30
2042;DHT22;1026;51.460;7.252;2022-07-22T00:24:51;21.10;75.00
2042;DHT22;1026;51.460;7.252;2022-07-22T00:27:16;21.10;75.00
2042;DHT22;1026;51.460;7.252;2022-07-22T00:29:42;21.10;74.90
2042;DHT22;1026;51.460;7.252;2022-07-22T00:32:07;21.10;75.20
2042;DHT22;1026;51.460;7.252;2022-07-22T00:34:33;21.10;75.10
2042;DHT22;1026;51.460;7.252;2022-07-22T00:36:59;21.00;75.70
2042;DHT22;1026;51.460;7.252;2022-07-22T00:39:24;21.00;75.10
2042;DHT22;1026;51.460;7.252;2022-07-22T00:41:50;21.00;74.90
2042;DHT22;1026;51.460;7.252;2022-07-22T00:44:16;21.00;75.10
2042;DHT22;1026;51.460;7.252;2022-07-22T00:46:42;21.00;75.10
2042;DHT22;1026;51.460;7.252;2022-07-22T00:49:08;21.00;75.20
2042;DHT22;1026;51.460;7.252;2022-07-22T00:51:34;20.90;75.60
2042;DHT22;1026;51.460;7.252;2022-07-22T00:54:02;20.90;75.50
2042;DHT22;1026;51.460;7.252;2022-07-22T00:56:30;21.00;75.30
2042;DHT22;1026;51.460;7.252;2022-07-22T00:58:59;20.90;75.30
2042;DHT22;1026;51.460;7.252;2022-07-22T01:01:25;20.90;75.60
2042;DHT22;1026;51.460;7.252;2022-07-22T01:03:52;20.90;75.30
2042;DHT22;1026;51.460;7.252;2022-07-22T01:06:17;20.90;75.20
2042;DHT22;1026;51.460;7.252;2022-07-22T01:08:43;20.90;75.10
2042;DHT22;1026;51.460;7.252;2022-07-22T01:11:11;20.90;75.00
2042;DHT22;1026;51.460;7.252;2022-07-22T01:13:37;20.90;75.00
2042;DHT22;1026;51.460;7.252;2022-07-22T01:16:04;20.90;75.00
2042;DHT22;1026;51.460;7.252;2022-07-22T01:18:30;20.90;75.20
2042;DHT22;1026;51.460;7.252;2022-07-22T01:20:56;20.90;75.40
2042;DHT22;1026;51.460;7.252;2022-07-22T01:23:22;20.90;75.30
2042;DHT22;1026;51.460;7.252;2022-07-22T01:25:48;20.90;75.00
2042;DHT22;1026;51.460;7.252;2022-07-22T01:28:13;20.90;75.00
2042;DHT22;1026;51.460;7.252;2022-07-22T01:30:39;20.90;75.40
2042;DHT22;1026;51.460;7.252;2022-07-22T01:33:05;20.80;75.20
2042;DHT22;1026;51.460;7.252;2022-07-22T01:35:31;20.80;75.00
2042;DHT22;1026;51.460;7.252;2022-07-22T01:37:56;20.90;75.10
2042;DHT22;1026;51.460;7.252;2022-07-22T01:40:22;20.80;75.10
2042;DHT22;1026;51.460;7.252;2022-07-22T01:42:47;20.80;75.00
2042;DHT22;1026;51.460;7.252;2022-07-22T01:45:13;20.80;75.10
2042;DHT22;1026;51.460;7.252;2022-07-22T01:47:39;20.80;75.00
2042;DHT22;1026;51.460;7.252;2022-07-22T01:50:05;20.80;75.20
2042;DHT22;1026;51.460;7.252;2022-07-22T01:52:33;20.80;75.20
2042;DHT22;1026;51.460;7.252;2022-07-22T01:54:58;20.80;76.00
2042;DHT22;1026;51.460;7.252;2022-07-22T01:57:24;20.80;75.30
2042;DHT22;1026;51.460;7.252;2022-07-22T01:59:49;20.80;75.20
2042;DHT22;1026;51.460;7.252;2022-07-22T02:02:15;20.80;75.20
2042;DHT22;1026;51.460;7.252;2022-07-22T02:04:41;20.80;75.10
2042;DHT22;1026;51.460;7.252;2022-07-22T02:07:06;20.70;75.30
2042;DHT22;1026;51.460;7.252;2022-07-22T02:09:32;20.70;75.20
2042;DHT22;1026;51.460;7.252;2022-07-22T02:11:58;20.70;75.10
2042;DHT22;1026;51.460;7.252;2022-07-22T02:14:23;20.70;75.10
2042;DHT22;1026;51.460;7.252;2022-07-22T02:16:49;20.70;75.10
2042;DHT22;1026;51.460;7.252;2022-07-22T02:19:15;20.70;75.20
2042;DHT22;1026;51.460;7.252;2022-07-22T02:21:40;20.70;75.20
2042;DHT22;1026;51.460;7.252;2022-07-22T02:24:06;20.70;75.20
2042;DHT22;1026;51.460;7.252;2022-07-22T02:26:32;20.70;75.30
2042;DHT22;1026;51.460;7.252;2022-07-22T02:28:57;20.70;75.20
2042;DHT22;1026;51.460;7.252;2022-07-22T02:31:23;20.70;75.20
2042;DHT22;1026;51.460;7.252;2022-07-22T02:33:49;20.70;75.20
2042;DHT22;1026;51.460;7.252;2022-07-22T02:36:15;20.70;75.20
2042;DHT22;1026;51.460;7.252;2022-07-22T02:38:40;20.70;75.20
2042;DHT22;1026;51.460;7.252;2022-07-22T02:41:06;20.70;75.20
2042;DHT22;1026;51.460;7.252;2022-07-22T02:43:32;20.60;75.20
2042;DHT22;1026;51.460;7.252;2022-07-22T02:45:57;20.60;75.10
2042;DHT22;1026;51.460;7.252;2022-07-22T02:48:23;20.60;75.30
2042;DHT22;1026;51.460;7.252;2022-07-22T02:50:49;20.60;75.20
2042;DHT22;1026;51.460;7.252;2022-07-22T02:53:15;20.60;75.30
2042;DHT22;1026;51.460;7.252;2022-07-22T02:55:40;20.50;75.20
2042;DHT22;1026;51.460;7.252;2022-07-22T02:58:07;20.60;75.30
2042;DHT22;1026;51.460;7.252;2022-07-22T03:00:34;20.60;75.60
2042;DHT22;1026;51.460;7.252;2022-07-22T03:03:00;20.50;76.00
2042;DHT22;1026;51.460;7.252;2022-07-22T03:05:25;20.50;75.30
2042;DHT22;1026;51.460;7.252;2022-07-22T03:07:51;20.50;75.50
2042;DHT22;1026;51.460;7.252;2022-07-22T03:10:17;20.50;75.30
2042;DHT22;1026;51.460;7.252;2022-07-22T03:12:42;20.50;75.30
2042;DHT22;1026;51.460;7.252;2022-07-22T03:15:09;20.50;75.40
2042;DHT22;1026;51.460;7.252;2022-07-22T03:17:36;20.50;75.40
2042;DHT22;1026;51.460;7.252;2022-07-22T03:20:03;20.50;75.40
2042;DHT22;1026;51.460;7.252;2022-07-22T03:22:30;20.50;75.50
2042;DHT22;1026;51.460;7.252;2022-07-22T03:24:55;20.50;75.30
2042;DHT22;1026;51.460;7.252;2022-07-22T03:27:21;20.50;75.40
2042;DHT22;1026;51.460;7.252;2022-07-22T03:29:47;20.50;75.60
2042;DHT22;1026;51.460;7.252;2022-07-22T03:32:12;20.50;75.50
2042;DHT22;1026;51.460;7.252;2022-07-22T03:34:38;20.50;75.40
2042;DHT22;1026;51.460;7.252;2022-07-22T03:37:04;20.40;75.40
2042;DHT22;1026;51.460;7.252;2022-07-22T03:39:30;20.50;75.30
2042;DHT22;1026;51.460;7.252;2022-07-22T03:41:56;20.50;75.30
2042;DHT22;1026;51.460;7.252;2022-07-22T03:44:22;20.40;75.30
2042;DHT22;1026;51.460;7.252;2022-07-22T03:46:47;20.40;75.50
2042;DHT22;1026;51.460;7.252;2022-07-22T03:49:13;20.40;75.40
2042;DHT22;1026;51.460;7.252;2022-07-22T03:51:39;20.40;75.30
2042;DHT22;1026;51.460;7.252;2022-07-22T03:54:04;20.40;75.30
2042;DHT22;1026;51.460;7.252;2022-07-22T03:56:31;20.40;75.40
2042;DHT22;1026;51.460;7.252;2022-07-22T03:58:56;20.30;75.30
2042;DHT22;1026;51.460;7.252;2022-07-22T04:01:22;20.40;75.30
2042;DHT22;1026;51.460;7.252;2022-07-22T04:03:48;20.40;75.40
2042;DHT22;1026;51.460;7.252;2022-07-22T04:06:15;20.40;75.30
2042;DHT22;1026;51.460;7.252;2022-07-22T04:08:40;20.40;75.40
2042;DHT22;1026;51.460;7.252;2022-07-22T04:11:06;20.30;75.40
2042;DHT22;1026;51.460;7.252;2022-07-22T04:13:32;20.30;75.40
2042;DHT22;1026;51.460;7.252;2022-07-22T04:15:57;20.30;76.20
2042;DHT22;1026;51.460;7.252;2022-07-22T04:18:23;20.30;75.40
2042;DHT22;1026;51.460;7.252;2022-07-22T04:20:49;20.30;75.50
2042;DHT22;1026;51.460;7.252;2022-07-22T04:23:15;20.30;75.40
2042;DHT22;1026;51.460;7.252;2022-07-22T04:25:40;20.30;75.40
2042;DHT22;1026;51.460;7.252;2022-07-22T04:28:06;20.30;75.40
2042;DHT22;1026;51.460;7.252;2022-07-22T04:30:32;20.20;75.30
2042;DHT22;1026;51.460;7.252;2022-07-22T04:32:58;20.30;75.50
2042;DHT22;1026;51.460;7.252;2022-07-22T04:35:24;20.30;75.70
2042;DHT22;1026;51.460;7.252;2022-07-22T04:37:50;20.30;75.50
2042;DHT22;1026;51.460;7.252;2022-07-22T04:40:16;20.20;75.40
2042;DHT22;1026;51.460;7.252;2022-07-22T04:42:42;20.30;75.70
2042;DHT22;1026;51.460;7.252;2022-07-22T04:45:07;20.30;75.50
2042;DHT22;1026;51.460;7.252;2022-07-22T04:47:34;20.30;75.50
2042;DHT22;1026;51.460;7.252;2022-07-22T04:49:59;20.20;75.30
2042;DHT22;1026;51.460;7.252;2022-07-22T04:52:25;20.20;75.40
2042;DHT22;1026;51.460;7.252;2022-07-22T04:54:51;20.20;75.50
2042;DHT22;1026;51.460;7.252;2022-07-22T04:57:16;20.20;75.60
2042;DHT22;1026;51.460;7.252;2022-07-22T04:59:42;20.20;75.50
2042;DHT22;1026;51.460;7.252;2022-07-22T05:02:08;20.20;75.60
2042;DHT22;1026;51.460;7.252;2022-07-22T05:04:34;20.20;75.50
2042;DHT22;1026;51.460;7.252;2022-07-22T05:07:00;20.20;75.50
2042;DHT22;1026;51.460;7.252;2022-07-22T05:09:26;20.20;75.60
2042;DHT22;1026;51.460;7.252;2022-07-22T05:11:51;20.10;75.60
2042;DHT22;1026;51.460;7.252;2022-07-22T05:14:17;20.10;75.60
2042;DHT22;1026;51.460;7.252;2022-07-22T05:16:43;20.20;75.60
2042;DHT22;1026;51.460;7.252;2022-07-22T05:19:09;20.20;75.80
2042;DHT22;1026;51.460;7.252;2022-07-22T05:21:34;20.10;75.60
2042;DHT22;1026;51.460;7.252;2022-07-22T05:24:00;20.10;75.70
2042;DHT22;1026;51.460;7.252;2022-07-22T05:26:26;20.10;75.70
2042;DHT22;1026;51.460;7.252;2022-07-22T05:28:54;20.10;75.60
2042;DHT22;1026;51.460;7.252;2022-07-22T05:31:20;20.10;75.70
2042;DHT22;1026;51.460;7.252;2022-07-22T05:33:46;20.10;75.60
2042;DHT22;1026;51.460;7.252;2022-07-22T05:36:11;20.10;75.70
2042;DHT22;1026;51.460;7.252;2022-07-22T05:38:37;20.10;75.50
2042;DHT22;1026;51.460;7.252;2022-07-22T05:41:03;20.10;75.70
2042;DHT22;1026;51.460;7.252;2022-07-22T05:43:29;20.10;75.50
2042;DHT22;1026;51.460;7.252;2022-07-22T05:45:55;20.10;75.60
2042;DHT22;1026;51.460;7.252;2022-07-22T05:48:20;20.10;75.70
2042;DHT22;1026;51.460;7.252;2022-07-22T05:50:46;20.00;75.50
2042;DHT22;1026;51.460;7.252;2022-07-22T05:53:12;20.10;75.60
2042;DHT22;1026;51.460;7.252;2022-07-22T05:55:38;20.00;75.70
2042;DHT22;1026;51.460;7.252;2022-07-22T05:58:03;20.00;75.60
2042;DHT22;1026;51.460;7.252;2022-07-22T06:00:29;20.10;75.60
2042;DHT22;1026;51.460;7.252;2022-07-22T06:02:55;20.10;75.70
2042;DHT22;1026;51.460;7.252;2022-07-22T06:05:21;20.10;75.60
2042;DHT22;1026;51.460;7.252;2022-07-22T06:07:46;20.00;75.50
2042;DHT22;1026;51.460;7.252;2022-07-22T06:10:12;20.00;75.40
2042;DHT22;1026;51.460;7.252;2022-07-22T06:12:38;20.10;75.40
2042;DHT22;1026;51.460;7.252;2022-07-22T06:15:04;20.10;75.40
2042;DHT22;1026;51.460;7.252;2022-07-22T06:17:30;20.00;75.50
2042;DHT22;1026;51.460;7.252;2022-07-22T06:19:56;20.00;75.40
2042;DHT22;1026;51.460;7.252;2022-07-22T06:22:22;20.00;75.30
2042;DHT22;1026;51.460;7.252;2022-07-22T06:24:48;20.00;75.20
2042;DHT22;1026;51.460;7.252;2022-07-22T06:27:13;20.00;75.20
2042;DHT22;1026;51.460;7.252;2022-07-22T06:29:39;20.00;75.20
2042;DHT22;1026;51.460;7.252;2022-07-22T06:32:06;20.00;75.20
2042;DHT22;1026;51.460;7.252;2022-07-22T06:34:32;20.00;75.30
2042;DHT22;1026;51.460;7.252;2022-07-22T06:36:58;20.00;75.20
2042;DHT22;1026;51.460;7.252;2022-07-22T06:39:24;20.00;75.40
2042;DHT22;1026;51.460;7.252;2022-07-22T06:41:50;20.00;75.50
2042;DHT22;1026;51.460;7.252;2022-07-22T06:44:16;20.00;75.50
2042;DHT22;1026;51.460;7.252;2022-07-22T06:46:41;20.00;75.20
2042;DHT22;1026;51.460;7.252;2022-07-22T06:49:07;20.00;75.30
2042;DHT22;1026;51.460;7.252;2022-07-22T06:51:33;20.00;75.20
2042;DHT22;1026;51.460;7.252;2022-07-22T06:54:00;20.00;75.10
2042;DHT22;1026;51.460;7.252;2022-07-22T06:56:25;20.00;75.20
2042;DHT22;1026;51.460;7.252;2022-07-22T06:58:51;20.00;75.10
2042;DHT22;1026;51.460;7.252;2022-07-22T07:01:17;20.00;75.00
2042;DHT22;1026;51.460;7.252;2022-07-22T07:03:43;20.00;75.00
2042;DHT22;1026;51.460;7.252;2022-07-22T07:06:11;20.00;75.00
2042;DHT22;1026;51.460;7.252;2022-07-22T07:08:38;20.00;74.90
2042;DHT22;1026;51.460;7.252;2022-07-22T07:11:04;19.90;74.80
2042;DHT22;1026;51.460;7.252;2022-07-22T07:13:29;20.00;74.90
2042;DHT22;1026;51.460;7.252;2022-07-22T07:15:55;20.00;74.90
2042;DHT22;1026;51.460;7.252;2022-07-22T07:18:21;20.00;74.70
2042;DHT22;1026;51.460;7.252;2022-07-22T07:20:46;20.00;74.80
2042;DHT22;1026;51.460;7.252;2022-07-22T07:23:12;20.00;74.70
2042;DHT22;1026;51.460;7.252;2022-07-22T07:25:38;20.00;74.70
2042;DHT22;1026;51.460;7.252;2022-07-22T07:28:04;20.00;74.70
2042;DHT22;1026;51.460;7.252;2022-07-22T07:30:29;20.00;74.80
2042;DHT22;1026;51.460;7.252;2022-07-22T07:32:55;20.00;74.60
2042;DHT22;1026;51.460;7.252;2022-07-22T07:35:21;19.90;74.50
2042;DHT22;1026;51.460;7.252;2022-07-22T07:37:47;20.00;74.50
2042;DHT22;1026;51.460;7.252;2022-07-22T07:40:12;20.00;74.50
2042;DHT22;1026;51.460;7.252;2022-07-22T07:42:38;20.00;74.50
2042;DHT22;1026;51.460;7.252;2022-07-22T07:45:04;20.00;74.40
2042;DHT22;1026;51.460;7.252;2022-07-22T07:47:30;20.00;74.30
2042;DHT22;1026;51.460;7.252;2022-07-22T07:49:56;20.00;74.40
2042;DHT22;1026;51.460;7.252;2022-07-22T07:52:23;20.00;74.30
2042;DHT22;1026;51.460;7.252;2022-07-22T07:54:48;19.90;74.20
2042;DHT22;1026;51.460;7.252;2022-07-22T07:57:14;20.00;74.30
2042;DHT22;1026;51.460;7.252;2022-07-22T07:59:40;20.00;74.20
2042;DHT22;1026;51.460;7.252;2022-07-22T08:02:06;20.10;74.40
2042;DHT22;1026;51.460;7.252;2022-07-22T08:04:33;20.00;74.20
2042;DHT22;1026;51.460;7.252;2022-07-22T08:07:00;20.00;74.20
2042;DHT22;1026;51.460;7.252;2022-07-22T08:09:26;20.00;74.10
2042;DHT22;1026;51.460;7.252;2022-07-22T08:11:52;20.00;74.10
2042;DHT22;1026;51.460;7.252;2022-07-22T08:14:17;20.00;74.10
2042;DHT22;1026;51.460;7.252;2022-07-22T08:16:43;20.00;74.10
2042;DHT22;1026;51.460;7.252;2022-07-22T08:19:09;20.10;74.20
2042;DHT22;1026;51.460;7.252;2022-07-22T08:21:35;20.00;74.00
2042;DHT22;1026;51.460;7.252;2022-07-22T08:24:01;20.10;74.10
2042;DHT22;1026;51.460;7.252;2022-07-22T08:26:27;20.00;74.00
2042;DHT22;1026;51.460;7.252;2022-07-22T08:28:53;20.10;74.20
2042;DHT22;1026;51.460;7.252;2022-07-22T08:31:19;20.10;74.10
2042;DHT22;1026;51.460;7.252;2022-07-22T08:33:45;20.00;74.00
2042;DHT22;1026;51.460;7.252;2022-07-22T08:36:10;20.10;74.10
2042;DHT22;1026;51.460;7.252;2022-07-22T08:38:36;20.10;74.10
2042;DHT22;1026;51.460;7.252;2022-07-22T08:41:03;20.10;74.00
2042;DHT22;1026;51.460;7.252;2022-07-22T08:43:30;20.10;74.00
2042;DHT22;1026;51.460;7.252;2022-07-22T08:45:57;20.10;74.10
2042;DHT22;1026;51.460;7.252;2022-07-22T08:48:22;20.10;74.10
2042;DHT22;1026;51.460;7.252;2022-07-22T08:50:48;20.10;74.10
2042;DHT22;1026;51.460;7.252;2022-07-22T08:53:14;20.10;74.00
2042;DHT22;1026;51.460;7.252;2022-07-22T08:55:42;20.10;74.00
2042;DHT22;1026;51.460;7.252;2022-07-22T08:58:08;20.10;74.00
2042;DHT22;1026;51.460;7.252;2022-07-22T09:00:34;20.10;73.90
2042;DHT22;1026;51.460;7.252;2022-07-22T09:03:00;20.10;73.90
2042;DHT22;1026;51.460;7.252;2022-07-22T09:05:33;20.10;73.90
2042;DHT22;1026;51.460;7.252;2022-07-22T09:07:59;20.10;73.90
2042;DHT22;1026;51.460;7.252;2022-07-22T09:10:32;20.10;73.90
2042;DHT22;1026;51.460;7.252;2022-07-22T09:13:00;20.10;73.80
2042;DHT22;1026;51.460;7.252;2022-07-22T09:15:30;20.10;73.80
2042;DHT22;1026;51.460;7.252;2022-07-22T09:17:57;20.10;73.80
2042;DHT22;1026;51.460;7.252;2022-07-22T09:20:23;20.10;73.80
2042;DHT22;1026;51.460;7.252;2022-07-22T09:22:50;20.10;73.70
2042;DHT22;1026;51.460;7.252;2022-07-22T09:25:32;20.10;73.70
2042;DHT22;1026;51.460;7.252;2022-07-22T09:28:15;20.10;73.70
2042;DHT22;1026;51.460;7.252;2022-07-22T09:30:50;20.10;73.60
2042;DHT22;1026;51.460;7.252;2022-07-22T09:33:17;20.10;73.60
2042;DHT22;1026;51.460;7.252;2022-07-22T09:35:44;20.10;74.40
2042;DHT22;1026;51.460;7.252;2022-07-22T09:38:11;20.20;73.90
2042;DHT22;1026;51.460;7.252;2022-07-22T09:40:42;20.10;73.60
2042;DHT22;1026;51.460;7.252;2022-07-22T09:43:11;20.10;73.60
2042;DHT22;1026;51.460;7.252;2022-07-22T09:45:48;20.10;73.50
2042;DHT22;1026;51.460;7.252;2022-07-22T09:48:15;20.10;73.50
2042;DHT22;1026;51.460;7.252;2022-07-22T09:50:43;20.20;73.60
2042;DHT22;1026;51.460;7.252;2022-07-22T09:53:09;20.20;73.60
2042;DHT22;1026;51.460;7.252;2022-07-22T09:55:38;20.20;73.50
2042;DHT22;1026;51.460;7.252;2022-07-22T09:58:04;20.10;73.40
2042;DHT22;1026;51.460;7.252;2022-07-22T10:00:33;20.20;73.50
2042;DHT22;1026;51.460;7.252;2022-07-22T10:03:01;20.20;73.50
2042;DHT22;1026;51.460;7.252;2022-07-22T10:05:31;20.20;73.50
2042;DHT22;1026;51.460;7.252;2022-07-22T10:07:57;20.20;73.50
2042;DHT22;1026;51.460;7.252;2022-07-22T10:10:27;20.20;73.40
2042;DHT22;1026;51.460;7.252;2022-07-22T10:12:55;20.20;73.40
2042;DHT22;1026;51.460;7.252;2022-07-22T10:15:22;20.20;73.40
2042;DHT22;1026;51.460;7.252;2022-07-22T10:17:52;20.20;73.40
2042;DHT22;1026;51.460;7.252;2022-07-22T10:20:19;20.20;73.40
2042;DHT22;1026;51.460;7.252;2022-07-22T10:22:49;20.30;73.40
2042;DHT22;1026;51.460;7.252;2022-07-22T10:25:15;20.20;73.30
2042;DHT22;1026;51.460;7.252;2022-07-22T10:27:47;20.30;73.30
2042;DHT22;1026;51.460;7.252;2022-07-22T10:30:15;20.20;73.20
2042;DHT22;1026;51.460;7.252;2022-07-22T10:32:41;20.20;73.20
2042;DHT22;1026;51.460;7.252;2022-07-22T10:35:19;20.30;73.30
2042;DHT22;1026;51.460;7.252;2022-07-22T10:37:49;20.30;73.20
2042;DHT22;1026;51.460;7.252;2022-07-22T10:40:17;20.30;73.20
2042;DHT22;1026;51.460;7.252;2022-07-22T10:45:27;20.30;73.20
2042;DHT22;1026;51.460;7.252;2022-07-22T10:47:54;20.30;73.20
2042;DHT22;1026;51.460;7.252;2022-07-22T10:56:30;20.30;73.10
2042;DHT22;1026;51.460;7.252;2022-07-22T10:58:57;20.30;73.20
2042;DHT22;1026;51.460;7.252;2022-07-22T11:01:27;20.40;73.20
2042;DHT22;1026;51.460;7.252;2022-07-22T11:03:53;20.30;73.90
2042;DHT22;1026;51.460;7.252;2022-07-22T11:06:29;20.30;73.10
2042;DHT22;1026;51.460;7.252;2022-07-22T11:09:01;20.40;73.20
2042;DHT22;1026;51.460;7.252;2022-07-22T11:16:45;20.40;73.10
2042;DHT22;1026;51.460;7.252;2022-07-22T11:19:11;20.40;73.10
2042;DHT22;1026;51.460;7.252;2022-07-22T11:21:37;20.40;73.10
2042;DHT22;1026;51.460;7.252;2022-07-22T11:24:05;20.40;73.00
2042;DHT22;1026;51.460;7.252;2022-07-22T11:26:39;20.40;73.10
2042;DHT22;1026;51.460;7.252;2022-07-22T11:29:06;20.40;72.90
2042;DHT22;1026;51.460;7.252;2022-07-22T11:31:32;20.50;72.90
2042;DHT22;1026;51.460;7.252;2022-07-22T11:34:08;20.40;72.80
2042;DHT22;1026;51.460;7.252;2022-07-22T11:36:35;20.50;72.80
2042;DHT22;1026;51.460;7.252;2022-07-22T11:39:01;20.50;72.80
2042;DHT22;1026;51.460;7.252;2022-07-22T11:41:29;20.50;72.70
2042;DHT22;1026;51.460;7.252;2022-07-22T11:43:57;20.50;72.70
2042;DHT22;1026;51.460;7.252;2022-07-22T11:46:23;20.50;72.70
2042;DHT22;1026;51.460;7.252;2022-07-22T11:48:52;20.40;72.50
2042;DHT22;1026;51.460;7.252;2022-07-22T11:51:18;20.60;72.70
2042;DHT22;1026;51.460;7.252;2022-07-22T11:53:44;20.60;72.70
2042;DHT22;1026;51.460;7.252;2022-07-22T11:56:10;20.60;72.70
2042;DHT22;1026;51.460;7.252;2022-07-22T11:58:46;20.60;72.60
2042;DHT22;1026;51.460;7.252;2022-07-22T12:01:14;20.60;72.70
2042;DHT22;1026;51.460;7.252;2022-07-22T12:03:45;20.60;72.60
2042;DHT22;1026;51.460;7.252;2022-07-22T12:06:13;20.60;72.50
2042;DHT22;1026;51.460;7.252;2022-07-22T12:08:41;20.60;72.50
2042;DHT22;1026;51.460;7.252;2022-07-22T12:11:09;20.60;72.50
2042;DHT22;1026;51.460;7.252;2022-07-22T12:13:35;20.70;72.50
2042;DHT22;1026;51.460;7.252;2022-07-22T12:16:16;20.70;72.50
2042;DHT22;1026;51.460;7.252;2022-07-22T12:18:42;20.70;73.20
2042;DHT22;1026;51.460;7.252;2022-07-22T12:21:08;20.70;72.50
2042;DHT22;1026;51.460;7.252;2022-07-22T12:23:33;20.70;72.50
2042;DHT22;1026;51.460;7.252;2022-07-22T12:26:00;20.80;72.50
2042;DHT22;1026;51.460;7.252;2022-07-22T12:28:26;20.80;72.50
2042;DHT22;1026;51.460;7.252;2022-07-22T12:30:54;20.80;72.50
2042;DHT22;1026;51.460;7.252;2022-07-22T12:33:21;20.80;72.30
2042;DHT22;1026;51.460;7.252;2022-07-22T12:36:05;20.80;72.20
2042;DHT22;1026;51.460;7.252;2022-07-22T12:38:31;20.90;72.20
2042;DHT22;1026;51.460;7.252;2022-07-22T12:41:20;20.90;72.20
2042;DHT22;1026;51.460;7.252;2022-07-22T12:43:43;20.90;72.00
2042;DHT22;1026;51.460;7.252;2022-07-22T12:46:08;21.00;72.00
2042;DHT22;1026;51.460;7.252;2022-07-22T12:48:34;21.00;71.80
2042;DHT22;1026;51.460;7.252;2022-07-22T12:51:00;21.00;71.70
2042;DHT22;1026;51.460;7.252;2022-07-22T12:53:26;21.00;71.70
2042;DHT22;1026;51.460;7.252;2022-07-22T12:55:57;21.10;71.50
2042;DHT22;1026;51.460;7.252;2022-07-22T12:58:26;21.10;71.50
2042;DHT22;1026;51.460;7.252;2022-07-22T13:00:54;21.10;71.20
2042;DHT22;1026;51.460;7.252;2022-07-22T13:03:21;21.20;71.30
2042;DHT22;1026;51.460;7.252;2022-07-22T13:05:50;21.20;71.20
2042;DHT22;1026;51.460;7.252;2022-07-22T13:08:16;21.10;71.10
2042;DHT22;1026;51.460;7.252;2022-07-22T13:10:43;21.20;71.20
2042;DHT22;1026;51.460;7.252;2022-07-22T13:13:08;21.20;71.10
2042;DHT22;1026;51.460;7.252;2022-07-22T13:15:35;21.30;71.20
2042;DHT22;1026;51.460;7.252;2022-07-22T13:18:01;21.30;71.20
2042;DHT22;1026;51.460;7.252;2022-07-22T13:20:26;21.30;71.20
2042;DHT22;1026;51.460;7.252;2022-07-22T13:22:52;21.30;71.60
2042;DHT22;1026;51.460;7.252;2022-07-22T13:25:18;21.30;71.30
2042;DHT22;1026;51.460;7.252;2022-07-22T13:27:44;21.30;70.90
2042;DHT22;1026;51.460;7.252;2022-07-22T13:30:10;21.40;71.00
2042;DHT22;1026;51.460;7.252;2022-07-22T13:32:36;21.40;71.00
2042;DHT22;1026;51.460;7.252;2022-07-22T13:35:01;21.40;71.10
2042;DHT22;1026;51.460;7.252;2022-07-22T13:37:27;21.40;70.90
2042;DHT22;1026;51.460;7.252;2022-07-22T13:39:53;21.40;71.10
2042;DHT22;1026;51.460;7.252;2022-07-22T13:42:19;21.40;71.20
2042;DHT22;1026;51.460;7.252;2022-07-22T13:44:45;21.50;70.90
2042;DHT22;1026;51.460;7.252;2022-07-22T13:47:11;21.50;70.70
2042;DHT22;1026;51.460;7.252;2022-07-22T13:49:37;21.50;70.70
2042;DHT22;1026;51.460;7.252;2022-07-22T13:52:04;21.60;70.70
2042;DHT22;1026;51.460;7.252;2022-07-22T13:54:30;21.60;70.70
2042;DHT22;1026;51.460;7.252;2022-07-22T13:56:56;21.60;70.60
2042;DHT22;1026;51.460;7.252;2022-07-22T13:59:23;21.60;70.50
2042;DHT22;1026;51.460;7.252;2022-07-22T14:01:50;21.70;70.50
2042;DHT22;1026;51.460;7.252;2022-07-22T14:04:16;21.70;70.40
2042;DHT22;1026;51.460;7.252;2022-07-22T14:06:41;21.70;70.40
2042;DHT22;1026;51.460;7.252;2022-07-22T14:09:07;21.80;70.60
2042;DHT22;1026;51.460;7.252;2022-07-22T14:11:33;21.80;70.50
2042;DHT22;1026;51.460;7.252;2022-07-22T14:13:58;21.80;70.30
2042;DHT22;1026;51.460;7.252;2022-07-22T14:16:24;21.90;70.30
2042;DHT22;1026;51.460;7.252;2022-07-22T14:21:33;21.90;70.10
2042;DHT22;1026;51.460;7.252;2022-07-22T14:23:59;21.90;70.10
2042;DHT22;1026;51.460;7.252;2022-07-22T14:26:24;22.00;70.10
2042;DHT22;1026;51.460;7.252;2022-07-22T14:28:50;22.00;70.00
2042;DHT22;1026;51.460;7.252;2022-07-22T14:31:16;22.00;69.40
2042;DHT22;1026;51.460;7.252;2022-07-22T14:33:42;22.10;70.30
2042;DHT22;1026;51.460;7.252;2022-07-22T14:36:08;22.10;70.00
2042;DHT22;1026;51.460;7.252;2022-07-22T14:38:34;22.20;69.80
2042;DHT22;1026;51.460;7.252;2022-07-22T14:40:59;22.20;69.50
2042;DHT22;1026;51.460;7.252;2022-07-22T14:43:25;22.20;69.50
2042;DHT22;1026;51.460;7.252;2022-07-22T14:45:51;22.30;69.60
2042;DHT22;1026;51.460;7.252;2022-07-22T14:48:17;22.30;69.40
2042;DHT22;1026;51.460;7.252;2022-07-22T14:50:43;22.30;69.30
2042;DHT22;1026;51.460;7.252;2022-07-22T14:53:09;22.40;69.30
2042;DHT22;1026;51.460;7.252;2022-07-22T14:55:34;22.40;69.20
2042;DHT22;1026;51.460;7.252;2022-07-22T14:58:00;22.40;69.10
2042;DHT22;1026;51.460;7.252;2022-07-22T15:00:26;22.50;69.10
2042;DHT22;1026;51.460;7.252;2022-07-22T15:02:51;22.50;68.90
2042;DHT22;1026;51.460;7.252;2022-07-22T15:05:17;22.50;68.80
2042;DHT22;1026;51.460;7.252;2022-07-22T15:07:42;22.60;68.90
2042;DHT22;1026;51.460;7.252;2022-07-22T15:10:09;22.60;68.80
2042;DHT22;1026;51.460;7.252;2022-07-22T15:12:36;22.60;68.90
2042;DHT22;1026;51.460;7.252;2022-07-22T15:15:02;22.70;68.90
2042;DHT22;1026;51.460;7.252;2022-07-22T15:17:28;22.70;68.90
2042;DHT22;1026;51.460;7.252;2022-07-22T15:19:58;22.70;68.60
2042;DHT22;1026;51.460;7.252;2022-07-22T15:22:24;22.70;68.60
2042;DHT22;1026;51.460;7.252;2022-07-22T15:24:50;22.80;68.70
2042;DHT22;1026;51.460;7.252;2022-07-22T15:27:16;22.70;68.50
2042;DHT22;1026;51.460;7.252;2022-07-22T15:29:43;22.80;68.50
2042;DHT22;1026;51.460;7.252;2022-07-22T15:32:09;22.80;68.40
2042;DHT22;1026;51.460;7.252;2022-07-22T15:34:35;22.80;68.30
2042;DHT22;1026;51.460;7.252;2022-07-22T15:37:01;22.80;68.30
2042;DHT22;1026;51.460;7.252;2022-07-22T15:39:26;22.90;68.40
2042;DHT22;1026;51.460;7.252;2022-07-22T15:41:52;22.90;68.40
2042;DHT22;1026;51.460;7.252;2022-07-22T15:44:18;22.90;68.30
2042;DHT22;1026;51.460;7.252;2022-07-22T15:46:43;22.90;68.20
2042;DHT22;1026;51.460;7.252;2022-07-22T15:49:09;22.90;68.20
2042;DHT22;1026;51.460;7.252;2022-07-22T15:51:37;23.00;68.30
2042;DHT22;1026;51.460;7.252;2022-07-22T15:54:02;22.90;68.20
2042;DHT22;1026;51.460;7.252;2022-07-22T15:56:28;23.00;68.20
2042;DHT22;1026;51.460;7.252;2022-07-22T15:58:54;23.00;68.20
2042;DHT22;1026;51.460;7.252;2022-07-22T16:01:35;23.00;68.10
2042;DHT22;1026;51.460;7.252;2022-07-22T16:04:00;23.10;68.10
2042;DHT22;1026;51.460;7.252;2022-07-22T16:06:26;23.10;68.10
2042;DHT22;1026;51.460;7.252;2022-07-22T16:08:52;23.10;68.00
2042;DHT22;1026;51.460;7.252;2022-07-22T16:11:18;23.10;67.90
2042;DHT22;1026;51.460;7.252;2022-07-22T16:13:43;23.10;67.90